This is the latest recevied weather packets stored in our database for station/object KB9PVH-3. If no packets are shown the sender has not sent any weather packets the latest 10 day(s).
| Time | Temp. | Humidity | Pressure | Rain* | Wind** | Luminosity | Snow |
|---|---|---|---|---|---|---|---|
| 1778152016 | 0° C | 74% | 1016 hPa | 0 mm | - | - | - |
| 1778151938 | 0° C | 74% | 1016 hPa | 0 mm | - | - | - |
| 1778150888 | 0° C | 74% | 1016.1 hPa | 0 mm | - | - | - |
| 1778149838 | 0° C | 74% | 1015.8 hPa | 0 mm | - | - | - |
| 1778148788 | 0° C | 74% | 1015.8 hPa | 0 mm | - | - | - |
| 1778147738 | 0° C | 74% | 1016 hPa | 0 mm | - | - | - |
| 1778146687 | 0° C | 75% | 1015.9 hPa | 0 mm | - | - | - |
| 1778145638 | 0.56° C | 72% | 1015.7 hPa | 0 mm | - | - | - |
| 1778143537 | 0.56° C | 71% | 1015.9 hPa | 0 mm | - | - | - |
| 1778142487 | 0.56° C | 71% | 1016.1 hPa | 0 mm | - | - | - |
| 1778141438 | 0.56° C | 71% | 1015.9 hPa | 0 mm | - | - | - |
| 1778140387 | 1.11° C | 70% | 1015.9 hPa | 0 mm | - | - | - |
| 1778139338 | 1.11° C | 70% | 1016.2 hPa | 0 mm | - | - | - |
| 1778138287 | 1.67° C | 67% | 1016.2 hPa | 0 mm | - | - | - |
| 1778135137 | 2.22° C | 62% | 1016.5 hPa | 0 mm | - | - | - |
| 1778134087 | 2.22° C | 61% | 1016.6 hPa | 0 mm | - | - | - |
| 1778133037 | 2.78° C | 62% | 1017 hPa | 0 mm | - | - | - |
| 1778131987 | 3.33° C | 62% | 1016.9 hPa | 0 mm | - | - | - |
| 1778130937 | 3.33° C | 61% | 1017.2 hPa | 0 mm | - | - | - |
| 1778129887 | 3.89° C | 59% | 1017.4 hPa | 0 mm | - | - | - |
| 1778128838 | 4.44° C | 58% | 1017.2 hPa | 0 mm | - | - | - |
| 1778127787 | 5° C | 55% | 1017.2 hPa | 0 mm | - | - | - |
| 1778126737 | 5.56° C | 54% | 1017.1 hPa | 0 mm | - | - | - |
| 1778124640 | 6.11° C | 55% | 1017.2 hPa | 0 mm | - | - | - |
| 1778121491 | 5° C | 58% | 1017.1 hPa | 0 mm | - | - | - |
* Rain latest hour (hover to see other rain measurements)
** Current wind speed in m/s (hover to see current wind gust speed)